Time;durP1;ratioP1;P1;durP2;ratioP2;P2;SDS_P1;SDS_P2;PMS_P1;PMS_P2;Temp;Humidity;BMP_temperature;BMP_pressure;BME280_temperature;BME280_humidity;BME280_pressure;Samples;Min_cycle;Max_cycle;Signal;HPM_P1;HPM_P2
2021/12/21 00:01:05;;;;;;;10.23;3.35;;;19.90;59.90;;;;;;4494792;31;20482;-80
2021/12/21 00:03:31;;;;;;;7.65;3.00;;;19.90;60.00;;;;;;4497170;31;20198;-80
2021/12/21 00:05:56;;;;;;;9.90;3.78;;;19.90;60.00;;;;;;4494850;31;20121;-81
2021/12/21 00:08:22;;;;;;;9.23;3.22;;;19.80;60.00;;;;;;4496701;31;20129;-80
2021/12/21 00:10:48;;;;;;;8.50;3.25;;;19.80;60.00;;;;;;4496628;31;20226;-80
2021/12/21 00:13:41;;;;;;;9.60;3.40;;;19.80;60.00;;;;;;4496028;31;20132;-80
2021/12/21 00:23:44;;;;;;;7.18;3.08;;;19.70;60.10;;;;;;4496602;31;20217;-79
2021/12/21 00:26:14;;;;;;;8.43;3.10;;;19.70;60.10;;;;;;4482461;31;20573;-81
2021/12/21 00:29:01;;;;;;;11.25;3.22;;;19.60;60.10;;;;;;4497094;31;20121;-80
2021/12/21 00:31:35;;;;;;;7.70;3.00;;;19.60;60.10;;;;;;4495793;31;20144;-81
2021/12/21 00:34:02;;;;;;;8.50;3.15;;;19.60;61.00;;;;;;4496294;31;20136;-81
2021/12/21 00:36:30;;;;;;;9.10;2.88;;;19.60;60.20;;;;;;4496243;31;20129;-80
2021/12/21 00:39:00;;;;;;;6.50;2.90;;;19.50;60.20;;;;;;4494364;31;20141;-79
2021/12/21 00:41:26;;;;;;;6.22;2.70;;;19.50;60.20;;;;;;4495863;31;20186;-80
2021/12/21 00:43:52;;;;;;;9.32;3.20;;;19.50;60.20;;;;;;4494921;31;20162;-80
2021/12/21 00:46:18;;;;;;;6.68;2.78;;;19.50;60.30;;;;;;4495519;31;20210;-79
2021/12/21 00:48:53;;;;;;;8.55;3.05;;;19.50;60.20;;;;;;4494543;31;20147;-80
2021/12/21 00:51:27;;;;;;;9.52;2.63;;;19.50;60.30;;;;;;4496100;31;20124;-80
2021/12/21 00:53:53;;;;;;;;;;;19.50;60.30;;;;;;4497886;31;20263;-81
2021/12/21 00:56:19;;;;;;;6.05;2.75;;;19.50;60.30;;;;;;4495326;31;20025;-79
2021/12/21 00:58:45;;;;;;;7.15;3.03;;;19.40;60.40;;;;;;4497000;31;20151;-80
2021/12/21 01:01:11;;;;;;;5.55;2.75;;;19.40;60.40;;;;;;4495818;31;20121;-80
2021/12/21 01:03:45;;;;;;;6.13;2.80;;;19.40;60.40;;;;;;4495319;31;20144;-80
2021/12/21 01:06:19;;;;;;;8.35;3.13;;;19.40;60.40;;;;;;4495592;31;21000;-79
2021/12/21 01:11:26;;;;;;;5.53;2.40;;;19.30;60.40;;;;;;4495595;31;20517;-79
2021/12/21 01:21:24;;;;;;;5.70;2.67;;;19.30;60.50;;;;;;4495384;31;20136;-80
2021/12/21 01:35:00;;;;;;;8.02;2.83;;;19.20;60.60;;;;;;4481962;31;20205;-80
2021/12/21 01:40:15;;;;;;;5.82;2.20;;;19.20;60.60;;;;;;4495087;31;20124;-80
2021/12/21 01:50:38;;;;;;;4.85;1.95;;;19.10;60.60;;;;;;4494978;31;20307;-80
2021/12/21 01:53:03;;;;;;;10.55;2.67;;;19.10;60.60;;;;;;4494441;31;20218;-79
2021/12/21 01:55:30;;;;;;;7.03;2.45;;;19.00;60.60;;;;;;4495821;31;20545;-80
2021/12/21 01:57:56;;;;;;;6.13;2.42;;;19.10;60.70;;;;;;4496563;31;20578;-79
2021/12/21 02:00:22;;;;;;;5.63;2.38;;;19.00;60.50;;;;;;4494456;31;20514;-79
2021/12/21 02:02:48;;;;;;;4.47;2.25;;;19.00;60.60;;;;;;4495612;31;20242;-79
2021/12/21 02:05:14;;;;;;;6.18;2.40;;;19.00;60.70;;;;;;4479923;31;20263;-79
2021/12/21 02:07:40;;;;;;;6.20;2.35;;;19.00;60.70;;;;;;4495553;31;20271;-80
2021/12/21 02:10:06;;;;;;;5.22;2.47;;;19.00;60.60;;;;;;4494390;31;20627;-80
2021/12/21 02:12:32;;;;;;;3.92;2.10;;;19.00;60.70;;;;;;4494940;31;20113;-79
2021/12/21 02:15:00;;;;;;;4.50;2.15;;;18.90;60.60;;;;;;4493779;31;20222;-79
2021/12/21 02:22:51;;;;;;;5.47;2.20;;;18.90;60.70;;;;;;4494477;31;20132;-80
2021/12/21 02:26:17;;;;;;;4.75;2.53;;;18.90;60.70;;;;;;4493809;31;20131;-80
2021/12/21 02:30:37;;;;;;;4.82;2.17;;;18.90;60.70;;;;;;4493083;31;20152;-80
2021/12/21 02:33:03;;;;;;;5.72;2.22;;;18.80;60.70;;;;;;4500029;31;20140;-80
2021/12/21 02:35:29;;;;;;;3.92;2.00;;;18.80;60.60;;;;;;4494126;31;20171;-80
2021/12/21 02:37:55;;;;;;;7.13;2.70;;;18.80;60.70;;;;;;4494324;31;20132;-79
2021/12/21 02:40:21;;;;;;;3.90;2.25;;;18.80;60.70;;;;;;4493015;31;20131;-79
2021/12/21 02:42:47;;;;;;;5.50;2.28;;;18.80;60.70;;;;;;4494502;31;20135;-79
2021/12/21 02:45:13;;;;;;;4.32;1.70;;;18.80;60.70;;;;;;4480710;32;20206;-80
2021/12/21 02:47:39;;;;;;;5.47;2.35;;;18.70;60.70;;;;;;4479768;32;20175;-79
2021/12/21 02:50:07;;;;;;;4.43;2.05;;;18.70;61.50;;;;;;4494110;32;20263;-79
2021/12/21 02:52:33;;;;;;;4.65;2.15;;;18.70;60.70;;;;;;4493607;32;20142;-79
2021/12/21 02:55:00;;;;;;;4.38;1.90;;;18.70;60.70;;;;;;4494962;32;20121;-79
2021/12/21 02:57:26;;;;;;;4.63;2.10;;;18.70;60.70;;;;;;4492697;32;20151;-79
2021/12/21 02:59:52;;;;;;;4.32;1.95;;;18.70;60.80;;;;;;4493361;32;20139;-80
2021/12/21 03:02:18;;;;;;;6.60;2.20;;;18.70;60.80;;;;;;4480295;32;20124;-80
2021/12/21 03:04:45;;;;;;;3.83;1.80;;;18.70;60.80;;;;;;4492725;32;20129;-80
2021/12/21 03:09:54;;;;;;;3.67;1.88;;;18.60;60.70;;;;;;4496914;31;20147;-78
2021/12/21 03:14:47;;;;;;;5.32;1.80;;;18.60;60.80;;;;;;4497434;31;20152;-79
2021/12/21 03:17:15;;;;;;;2.50;1.83;;;18.60;60.80;;;;;;4482903;31;20593;-80
2021/12/21 03:19:41;;;;;;;3.53;1.58;;;18.60;60.80;;;;;;4496723;31;20217;-79
2021/12/21 03:22:09;;;;;;;3.63;1.88;;;18.60;60.80;;;;;;4482486;31;20159;-79
2021/12/21 03:24:35;;;;;;;3.45;1.80;;;18.50;60.80;;;;;;4497968;31;20144;-79
2021/12/21 03:27:02;;;;;;;4.20;1.80;;;18.50;60.80;;;;;;4482494;31;20105;-79
2021/12/21 03:29:29;;;;;;;4.60;1.98;;;18.50;60.80;;;;;;4497274;31;20124;-79
2021/12/21 03:31:56;;;;;;;3.22;1.98;;;18.50;60.80;;;;;;4496205;31;20125;-79
2021/12/21 03:34:22;;;;;;;4.60;1.70;;;18.50;60.80;;;;;;4496828;31;20143;-79
2021/12/21 03:36:48;;;;;;;3.00;1.65;;;18.50;60.80;;;;;;4496437;31;20144;-79
2021/12/21 03:39:19;;;;;;;3.75;1.92;;;18.50;60.80;;;;;;4495240;31;20136;-79
2021/12/21 03:41:57;;;;;;;4.80;1.58;;;18.50;60.80;;;;;;4496823;31;20262;-79
2021/12/21 03:44:26;;;;;;;3.63;1.50;;;18.50;60.80;;;;;;4495377;31;20140;-79
2021/12/21 03:46:54;;;;;;;2.40;1.55;;;18.40;60.80;;;;;;4496064;31;20206;-80
2021/12/21 03:51:59;;;;;;;4.38;1.67;;;18.40;60.80;;;;;;4496395;31;20599;-79
2021/12/21 03:54:25;;;;;;;2.92;1.58;;;18.40;60.80;;;;;;4497476;31;20132;-79
2021/12/21 03:56:52;;;;;;;3.75;1.80;;;18.40;60.80;;;;;;4495116;31;20121;-79
2021/12/21 03:59:19;;;;;;;2.53;1.60;;;18.40;60.80;;;;;;4497326;31;20234;-80
2021/12/21 04:01:46;;;;;;;4.18;1.80;;;18.30;60.80;;;;;;4495535;31;20128;-79
2021/12/21 04:04:12;;;;;;;2.95;1.58;;;18.40;60.80;;;;;;4495624;31;20337;-79
2021/12/21 04:06:38;;;;;;;2.15;1.40;;;18.30;60.80;;;;;;4496605;31;20133;-79
2021/12/21 04:09:06;;;;;;;3.95;1.73;;;18.40;60.80;;;;;;4496217;31;20166;-78
2021/12/21 04:11:32;;;;;;;4.40;1.65;;;18.30;60.80;;;;;;4497005;31;20283;-79
2021/12/21 04:13:59;;;;;;;3.22;1.48;;;18.30;60.80;;;;;;4494950;31;20136;-79
2021/12/21 04:16:25;;;;;;;3.20;1.42;;;18.30;60.80;;;;;;4495834;31;20762;-79
2021/12/21 04:18:51;;;;;;;2.13;1.42;;;18.30;60.80;;;;;;4495651;31;20124;-79
2021/12/21 04:21:18;;;;;;;2.70;1.70;;;18.30;60.70;;;;;;4495343;31;20151;-79
2021/12/21 04:23:44;;;;;;;2.88;1.45;;;18.30;60.70;;;;;;4495597;31;20593;-78
2021/12/21 04:26:11;;;;;;;3.03;1.35;;;18.30;60.80;;;;;;4494904;31;20129;-79
2021/12/21 04:28:38;;;;;;;2.53;1.48;;;18.30;60.70;;;;;;4496942;31;20194;-79
2021/12/21 04:31:06;;;;;;;3.05;1.67;;;18.20;60.70;;;;;;4495690;31;20155;-79
2021/12/21 04:33:32;;;;;;;3.60;1.33;;;18.20;60.70;;;;;;4496623;31;20139;-79
2021/12/21 04:35:59;;;;;;;2.03;1.33;;;18.20;60.70;;;;;;4468809;31;20136;-79
2021/12/21 04:38:31;;;;;;;2.00;1.38;;;18.20;60.80;;;;;;4495352;31;20552;-78
2021/12/21 04:41:05;;;;;;;3.42;1.50;;;18.20;60.80;;;;;;4496953;31;20218;-79
2021/12/21 04:43:31;;;;;;;3.50;1.60;;;18.20;60.80;;;;;;4494470;31;20255;-79
2021/12/21 04:45:57;;;;;;;3.45;1.60;;;18.20;60.80;;;;;;4496797;31;20271;-78
2021/12/21 04:48:23;;;;;;;2.05;1.40;;;18.10;60.80;;;;;;4495679;31;20144;-79
2021/12/21 04:50:49;;;;;;;3.35;1.48;;;18.10;60.70;;;;;;4496364;31;20128;-79
2021/12/21 04:53:15;;;;;;;2.75;1.50;;;18.10;60.70;;;;;;4495861;31;20121;-79
2021/12/21 04:55:41;;;;;;;2.40;1.42;;;18.10;60.80;;;;;;4494569;31;20128;-78
2021/12/21 04:58:08;;;;;;;2.97;1.67;;;18.10;60.70;;;;;;4482211;31;20121;-78
2021/12/21 05:00:35;;;;;;;3.05;1.60;;;18.10;60.70;;;;;;4494042;31;20124;-78
2021/12/21 05:03:01;;;;;;;3.15;1.33;;;18.10;60.70;;;;;;4496588;31;20125;-77
2021/12/21 05:05:27;;;;;;;2.20;1.33;;;18.10;60.80;;;;;;4494137;31;20142;-78
2021/12/21 05:08:06;;;;;;;2.20;1.25;;;18.10;60.80;;;;;;4495892;31;20580;-79
2021/12/21 05:10:33;;;;;;;1.98;1.20;;;18.00;60.70;;;;;;4494681;31;20139;-78
2021/12/21 05:12:59;;;;;;;1.88;1.30;;;18.00;60.70;;;;;;4494168;31;20478;-79
2021/12/21 05:15:25;;;;;;;2.03;1.23;;;18.00;60.70;;;;;;4495154;31;20117;-78
2021/12/21 05:17:51;;;;;;;1.65;1.25;;;18.00;60.70;;;;;;4493595;31;20133;-79
2021/12/21 05:20:16;;;;;;;1.95;1.13;;;18.00;60.70;;;;;;4496312;31;20512;-78
2021/12/21 05:22:42;;;;;;;2.17;1.20;;;18.00;60.70;;;;;;4493855;31;20629;-79
2021/12/21 05:25:08;;;;;;;2.53;1.30;;;18.00;60.70;;;;;;4481642;31;20128;-79
2021/12/21 05:27:34;;;;;;;3.65;1.17;;;18.00;60.70;;;;;;4495026;31;20217;-79
2021/12/21 05:30:00;;;;;;;2.50;1.30;;;17.90;60.70;;;;;;4495069;31;20129;-79
2021/12/21 05:32:27;;;;;;;3.28;1.50;;;17.90;60.70;;;;;;4481843;31;20131;-79
2021/12/21 05:34:52;;;;;;;2.42;1.33;;;17.90;60.70;;;;;;4493526;31;20132;-79
2021/12/21 05:37:18;;;;;;;3.05;1.33;;;17.90;60.70;;;;;;4495935;31;20133;-79
2021/12/21 05:40:33;;;;;;;1.90;1.02;;;17.90;60.70;;;;;;4494519;31;20143;-80
2021/12/21 05:42:30;;;;;;;2.20;1.10;;;17.90;60.70;;;;;;4485953;31;20132;-80
2021/12/21 05:44:56;;;;;;;1.83;1.20;;;17.90;60.70;;;;;;4495145;31;20139;-79
2021/12/21 05:47:22;;;;;;;2.33;1.40;;;17.90;61.60;;;;;;4480489;31;20129;-79
2021/12/21 05:49:48;;;;;;;2.33;1.20;;;17.90;60.70;;;;;;4495239;31;20135;-79
2021/12/21 05:52:13;;;;;;;1.77;1.08;;;17.90;60.70;;;;;;4481452;31;20144;-78
2021/12/21 05:54:40;;;;;;;2.50;1.13;;;17.80;60.70;;;;;;4495496;31;20234;-78
2021/12/21 05:57:06;;;;;;;1.70;1.00;;;17.80;60.70;;;;;;4494267;31;20263;-78
2021/12/21 05:59:32;;;;;;;2.92;1.30;;;17.80;60.70;;;;;;4495210;31;20129;-78
2021/12/21 06:01:57;;;;;;;2.88;1.60;;;17.80;60.70;;;;;;4493858;31;20286;-79
2021/12/21 06:04:24;;;;;;;1.85;1.08;;;17.80;60.70;;;;;;4493541;31;20688;-78
2021/12/21 06:06:50;;;;;;;1.90;1.30;;;17.80;60.70;;;;;;4495331;31;20628;-79
2021/12/21 06:09:16;;;;;;;1.60;1.10;;;17.80;60.70;;;;;;4480136;31;20156;-79
2021/12/21 06:11:54;;;;;;;1.40;1.00;;;17.80;60.70;;;;;;4494221;31;20109;-78
2021/12/21 06:27:36;;;;;;;2.88;1.20;;;17.70;60.80;;;;;;4493552;31;20274;-78
2021/12/21 06:30:03;;;;;;;2.05;1.20;;;17.70;60.80;;;;;;4493400;31;20141;-79
2021/12/21 06:32:30;;;;;;;1.38;1.00;;;17.70;60.80;;;;;;4481130;31;20140;-78
2021/12/21 06:34:56;;;;;;;1.40;1.00;;;17.70;60.80;;;;;;4492756;31;20143;-79
2021/12/21 06:37:22;;;;;;;1.58;0.95;;;17.70;60.80;;;;;;4494241;31;20128;-79
2021/12/21 06:39:48;;;;;;;3.15;1.10;;;17.70;60.80;;;;;;4492824;31;20143;-79
2021/12/21 06:42:15;;;;;;;1.80;1.08;;;17.60;60.70;;;;;;4494497;31;20177;-79
2021/12/21 06:44:43;;;;;;;1.40;0.98;;;17.60;60.80;;;;;;4494434;31;20125;-79
2021/12/21 06:52:41;;;;;;;2.90;1.20;;;17.60;60.80;;;;;;4495165;32;20128;-78
2021/12/21 06:55:07;;;;;;;2.22;1.20;;;17.50;60.80;;;;;;4482292;32;20131;-79
2021/12/21 06:57:34;;;;;;;1.88;1.08;;;17.60;60.90;;;;;;4494422;32;20226;-78
2021/12/21 07:00:01;;;;;;;2.78;1.23;;;17.50;60.80;;;;;;4494315;32;20148;-78
2021/12/21 07:02:27;;;;;;;2.42;1.17;;;17.50;60.80;;;;;;4494859;32;20137;-78
2021/12/21 07:04:55;;;;;;;2.70;1.35;;;17.50;60.80;;;;;;4479342;32;20124;-78
2021/12/21 07:07:21;;;;;;;1.95;0.98;;;17.50;60.80;;;;;;4493894;32;20598;-78
2021/12/21 07:09:58;;;;;;;2.58;1.00;;;17.50;60.90;;;;;;4492596;32;20136;-78
2021/12/21 07:20:26;;;;;;;1.38;0.98;;;17.40;60.80;;;;;;4495028;32;20132;-78
2021/12/21 07:22:52;;;;;;;1.30;0.93;;;17.40;60.90;;;;;;4479330;32;20112;-77
2021/12/21 07:25:18;;;;;;;2.33;1.00;;;17.40;60.90;;;;;;4494271;32;20267;-78
2021/12/21 07:27:44;;;;;;;1.85;1.15;;;17.40;60.90;;;;;;4480138;32;20136;-78
2021/12/21 07:30:10;;;;;;;1.42;0.85;;;17.40;60.90;;;;;;4492402;32;20372;-78
2021/12/21 07:32:37;;;;;;;1.65;1.00;;;17.40;60.90;;;;;;4493779;32;20146;-78
2021/12/21 07:35:05;;;;;;;2.10;1.00;;;17.40;60.90;;;;;;4493227;32;20136;-77
2021/12/21 07:37:31;;;;;;;2.17;1.48;;;17.40;60.90;;;;;;4480480;32;20136;-78
2021/12/21 07:39:57;;;;;;;1.67;1.00;;;17.30;60.80;;;;;;4492462;32;20120;-78
2021/12/21 07:42:23;;;;;;;2.25;1.05;;;17.30;60.90;;;;;;4494362;32;20638;-78
2021/12/21 07:44:50;;;;;;;1.17;0.80;;;17.30;60.90;;;;;;4479979;32;20207;-78
2021/12/21 07:47:17;;;;;;;1.65;1.08;;;17.30;60.90;;;;;;4493410;32;20132;-77
2021/12/21 07:49:43;;;;;;;1.25;0.88;;;17.30;60.90;;;;;;4494706;32;20128;-78
2021/12/21 07:52:10;;;;;;;1.90;1.00;;;17.30;60.90;;;;;;4492178;31;20132;-78
2021/12/21 07:54:37;;;;;;;1.15;0.73;;;17.30;61.00;;;;;;4482747;31;20270;-78
2021/12/21 07:57:06;;;;;;;2.03;1.00;;;17.30;60.90;;;;;;4495887;31;20135;-78
2021/12/21 07:59:33;;;;;;;2.33;1.20;;;17.30;61.00;;;;;;4495769;31;20266;-78
2021/12/21 08:01:59;;;;;;;1.45;0.85;;;17.20;60.90;;;;;;4495761;31;20356;-78
2021/12/21 08:04:28;;;;;;;1.73;0.90;;;17.20;60.80;;;;;;4468886;31;20278;-79
2021/12/21 08:06:58;;;;;;;1.30;1.05;;;17.20;60.80;;;;;;4483107;31;20349;-78
2021/12/21 08:09:38;;;;;;;1.90;1.00;;;17.20;60.80;;;;;;4496172;31;20167;-78
2021/12/21 08:12:15;;;;;;;2.85;1.05;;;17.20;60.90;;;;;;4484210;31;20605;-78
2021/12/21 08:14:46;;;;;;;1.73;1.05;;;17.20;60.80;;;;;;4483695;31;20132;-74
2021/12/21 08:17:14;;;;;;;3.95;1.17;;;17.20;60.90;;;;;;4494912;31;20147;-74
2021/12/21 08:19:40;;;;;;;3.28;1.80;;;17.10;60.40;;;;;;4495810;31;20132;-76
2021/12/21 08:22:05;;;;;;;4.18;1.60;;;17.10;59.10;;;;;;4481290;31;20136;-75
2021/12/21 08:24:33;;;;;;;3.47;1.60;;;17.10;58.00;;;;;;4497103;31;20179;-75
2021/12/21 08:27:02;;;;;;;2.03;1.58;;;17.10;58.10;;;;;;4494496;31;20213;-76
2021/12/21 08:29:29;;;;;;;3.30;1.60;;;17.00;58.50;;;;;;4495540;31;20470;-79
2021/12/21 08:31:55;;;;;;;5.00;1.83;;;17.00;58.60;;;;;;4496206;31;20137;-80
2021/12/21 08:34:22;;;;;;;2.85;1.90;;;17.00;58.60;;;;;;4494611;31;20151;-79
2021/12/21 08:36:49;;;;;;;4.57;1.70;;;17.10;58.60;;;;;;4495880;31;20120;-76
2021/12/21 08:39:16;;;;;;;3.55;1.52;;;17.10;58.60;;;;;;4495341;31;20136;-78
2021/12/21 08:41:44;;;;;;;2.55;1.58;;;17.10;58.60;;;;;;4496881;31;20146;-79
2021/12/21 08:44:11;;;;;;;3.30;1.40;;;17.20;58.60;;;;;;4495544;31;20124;-77
2021/12/21 08:46:39;;;;;;;2.83;1.42;;;17.20;58.60;;;;;;4496258;31;20195;-80
2021/12/21 08:49:05;;;;;;;4.95;1.42;;;17.30;58.60;;;;;;4495834;31;20137;-76
2021/12/21 08:51:32;;;;;;;6.03;1.65;;;17.40;58.30;;;;;;4494755;31;20540;-77
2021/12/21 08:53:57;;;;;;;6.07;1.60;;;17.50;58.10;;;;;;4482525;31;20808;-79
2021/12/21 08:56:24;;;;;;;3.22;1.52;;;17.70;57.90;;;;;;4480981;31;20149;-79
2021/12/21 08:58:50;;;;;;;3.47;1.48;;;17.80;57.60;;;;;;4495648;31;20190;-81
2021/12/21 09:01:17;;;;;;;3.08;1.50;;;17.90;57.30;;;;;;4494192;31;20121;-78
2021/12/21 09:03:45;;;;;;;3.35;1.52;;;18.00;57.10;;;;;;4495005;31;20123;-80
2021/12/21 09:06:11;;;;;;;2.60;1.45;;;18.10;57.00;;;;;;4495466;31;20137;-79
2021/12/21 09:08:37;;;;;;;2.25;1.30;;;18.30;56.80;;;;;;4494363;31;20147;-78
2021/12/21 09:11:05;;;;;;;2.50;1.40;;;18.40;56.60;;;;;;4496366;31;20128;-78
2021/12/21 09:13:32;;;;;;;3.30;1.50;;;18.50;56.40;;;;;;4495056;31;20134;-83
2021/12/21 09:15:58;;;;;;;2.70;1.23;;;18.60;56.20;;;;;;4496440;31;20189;-82
2021/12/21 09:18:25;;;;;;;4.18;1.30;;;18.70;55.90;;;;;;4494980;31;20152;-81
2021/12/21 09:20:51;;;;;;;2.88;1.65;;;18.80;55.70;;;;;;4495900;31;20121;-75
2021/12/21 09:23:17;;;;;;;2.97;1.25;;;18.90;55.50;;;;;;4481078;31;20302;-74
2021/12/21 09:25:43;;;;;;;1.45;0.98;;;19.00;55.30;;;;;;4494154;31;20136;-77
2021/12/21 09:28:09;;;;;;;2.70;1.20;;;19.10;55.10;;;;;;4494543;31;20141;-79
2021/12/21 09:30:35;;;;;;;3.78;1.30;;;19.20;54.80;;;;;;4480638;31;20128;-80
2021/12/21 09:33:01;;;;;;;2.47;1.20;;;19.40;54.70;;;;;;4496110;31;20175;-79
2021/12/21 09:35:28;;;;;;;2.00;1.10;;;19.50;54.40;;;;;;4494745;31;20313;-81
2021/12/21 09:37:54;;;;;;;3.15;1.10;;;19.60;54.10;;;;;;4494669;31;20136;-78
2021/12/21 09:40:25;;;;;;;2.30;1.23;;;19.70;53.90;;;;;;4494026;31;20147;-77
2021/12/21 09:42:51;;;;;;;2.53;1.08;;;19.80;53.70;;;;;;4494939;31;20140;-78
2021/12/21 09:45:18;;;;;;;2.25;1.13;;;19.90;53.40;;;;;;4495553;31;20168;-77
2021/12/21 09:47:44;;;;;;;2.13;1.30;;;20.00;53.30;;;;;;4493521;31;20670;-77
2021/12/21 09:50:13;;;;;;;2.38;1.10;;;20.10;53.10;;;;;;4494563;31;20128;-77
2021/12/21 09:52:39;;;;;;;1.52;0.98;;;20.20;52.90;;;;;;4494778;31;20163;-80
2021/12/21 09:55:08;;;;;;;3.47;1.30;;;20.30;52.70;;;;;;4495216;31;20171;-79
2021/12/21 09:57:35;;;;;;;7.25;1.02;;;20.40;52.60;;;;;;4493484;31;20166;-80
2021/12/21 10:00:08;;;;;;;1.85;1.00;;;20.50;52.40;;;;;;4480443;31;20155;-80
2021/12/21 10:02:35;;;;;;;1.90;1.33;;;20.60;52.20;;;;;;4495531;31;20136;-80
2021/12/21 10:05:06;;;;;;;3.03;1.15;;;20.70;52.10;;;;;;4494390;31;20282;-79
2021/12/21 10:07:33;;;;;;;4.68;1.10;;;20.80;52.10;;;;;;4495216;31;20654;-79
2021/12/21 10:10:18;;;;;;;1.73;1.00;;;20.80;52.00;;;;;;4494493;31;20509;-79
2021/12/21 10:12:46;;;;;;;2.17;1.02;;;20.90;52.00;;;;;;4494548;31;20202;-80
2021/12/21 10:15:14;;;;;;;3.05;1.15;;;20.90;51.90;;;;;;4495591;31;20187;-77
2021/12/21 10:17:57;;;;;;;3.20;1.00;;;20.90;51.90;;;;;;4492584;31;20140;-76
2021/12/21 10:20:45;;;;;;;4.27;1.63;;;21.00;52.00;;;;;;4482201;31;20485;-74
2021/12/21 10:23:15;;;;;;;1.98;1.02;;;21.00;52.10;;;;;;4493924;31;20143;-78
2021/12/21 10:25:55;;;;;;;2.10;1.20;;;21.10;51.90;;;;;;4494326;31;20283;-77
2021/12/21 10:28:32;;;;;;;2.92;1.20;;;21.10;51.90;;;;;;4493876;31;20160;-80
2021/12/21 10:31:00;;;;;;;5.95;1.40;;;21.20;52.00;;;;;;4492424;31;20128;-85
2021/12/21 10:33:27;;;;;;;2.75;1.40;;;21.20;51.80;;;;;;4494322;31;20147;-68
2021/12/21 10:35:56;;;;;;;2.97;1.83;;;21.20;51.70;;;;;;4480087;31;20214;-76
2021/12/21 10:38:35;;;;;;;5.65;2.20;;;21.10;50.80;;;;;;4492893;31;20128;-74
2021/12/21 10:41:17;;;;;;;4.13;1.77;;;21.00;49.90;;;;;;4495470;31;20128;-79
2021/12/21 10:43:54;;;;;;;4.40;1.92;;;20.90;49.40;;;;;;4493285;31;20179;-73
2021/12/21 10:46:21;;;;;;;5.60;1.88;;;20.80;49.40;;;;;;4494039;31;20136;-80
2021/12/21 10:48:49;;;;;;;5.13;1.92;;;20.80;49.20;;;;;;4479855;31;20124;-79
2021/12/21 10:51:16;;;;;;;3.85;1.65;;;20.70;49.40;;;;;;4492801;31;20129;-80
2021/12/21 10:53:47;;;;;;;5.68;1.70;;;20.70;50.60;;;;;;4493909;31;20151;-84
2021/12/21 10:56:15;;;;;;;3.35;1.33;;;20.60;49.80;;;;;;4494373;31;20136;-85
2021/12/21 10:58:44;;;;;;;4.22;1.65;;;20.60;50.10;;;;;;4493624;31;20128;-81
2021/12/21 11:01:15;;;;;;;5.97;1.55;;;20.60;50.20;;;;;;4494330;31;20191;-82
2021/12/21 11:03:49;;;;;;;2.15;1.13;;;20.70;50.50;;;;;;4479891;32;20140;-80
2021/12/21 11:06:19;;;;;;;3.72;2.00;;;20.70;50.60;;;;;;4494413;32;20136;-78
2021/12/21 11:08:48;;;;;;;4.50;1.42;;;20.70;50.80;;;;;;4492876;32;20124;-77
2021/12/21 11:11:29;;;;;;;5.18;1.67;;;20.70;50.90;;;;;;4495072;32;20136;-77
2021/12/21 11:14:02;;;;;;;2.45;1.30;;;20.70;50.90;;;;;;4492267;32;20124;-75
2021/12/21 11:16:37;;;;;;;6.05;1.40;;;20.70;52.00;;;;;;4494231;31;20137;-77
2021/12/21 11:19:04;;;;;;;5.00;1.42;;;20.70;51.10;;;;;;4494222;31;20466;-74
2021/12/21 11:21:32;;;;;;;4.55;1.42;;;20.70;51.20;;;;;;4493052;31;20144;-78
2021/12/21 11:24:03;;;;;;;2.30;1.30;;;20.70;51.30;;;;;;4494890;31;20149;-86
2021/12/21 11:26:31;;;;;;;3.80;1.30;;;20.70;51.50;;;;;;4493485;31;20146;-81
2021/12/21 11:29:04;;;;;;;3.33;1.30;;;20.70;51.50;;;;;;4495772;31;20466;-79
2021/12/21 11:31:32;;;;;;;3.10;1.63;;;20.70;51.70;;;;;;4495567;31;20136;-83
2021/12/21 11:33:59;;;;;;;1.73;1.00;;;20.70;51.70;;;;;;4497355;31;20125;-82
2021/12/21 11:39:13;;;;;;;5.50;1.27;;;20.70;51.90;;;;;;4496504;31;20147;-81
2021/12/21 11:41:41;;;;;;;3.05;1.10;;;20.70;52.00;;;;;;4497443;31;20290;-73
2021/12/21 11:44:52;;;;;;;5.38;1.02;;;20.70;52.10;;;;;;4482871;31;20132;-78
2021/12/21 11:47:30;;;;;;;6.72;1.50;;;20.70;52.20;;;;;;4495687;31;20144;-77
2021/12/21 11:50:01;;;;;;;4.03;1.30;;;20.70;52.20;;;;;;4497961;31;20140;-77
2021/12/21 11:52:28;;;;;;;2.03;1.40;;;20.60;52.20;;;;;;4509344;31;20136;-77
2021/12/21 11:54:56;;;;;;;3.85;1.20;;;20.60;52.30;;;;;;4496800;31;20129;-77
2021/12/21 11:57:45;;;;;;;4.22;1.60;;;20.50;52.40;;;;;;4496570;31;20151;-77
2021/12/21 12:00:21;;;;;;;4.28;1.23;;;20.40;52.50;;;;;;4503384;31;41731;-78
2021/12/21 12:02:49;;;;;;;4.20;1.40;;;20.40;52.90;;;;;;4502143;31;20138;-77
2021/12/21 12:05:23;;;;;;;3.05;1.45;;;20.20;53.10;;;;;;4498920;31;20532;-79
2021/12/21 12:08:06;;;;;;;3.25;1.08;;;20.20;53.50;;;;;;4495096;31;20382;-79
2021/12/21 12:10:38;;;;;;;2.30;1.10;;;20.10;53.80;;;;;;4494767;31;20129;-78
2021/12/21 12:13:13;;;;;;;4.60;1.23;;;20.00;54.20;;;;;;4494403;31;20124;-79
2021/12/21 12:15:55;;;;;;;6.35;1.30;;;20.00;54.50;;;;;;4495611;31;20135;-78
2021/12/21 12:18:36;;;;;;;6.72;1.05;;;19.90;54.70;;;;;;4494677;31;20475;-79
2021/12/21 12:21:31;;;;;;;2.10;0.98;;;19.90;54.80;;;;;;4494771;31;20137;-80
2021/12/21 12:24:02;;;;;;;3.00;1.25;;;20.00;55.00;;;;;;4485460;31;20163;-79
2021/12/21 12:26:31;;;;;;;2.35;1.08;;;20.00;55.00;;;;;;4494033;31;20249;-77
2021/12/21 12:29:10;;;;;;;3.00;1.40;;;20.10;55.00;;;;;;4496418;31;20140;-77
2021/12/21 12:31:38;;;;;;;3.38;1.58;;;20.10;55.00;;;;;;4494259;31;20312;-76
2021/12/21 12:34:06;;;;;;;3.60;1.40;;;20.20;54.90;;;;;;4481533;31;20143;-72
2021/12/21 12:36:51;;;;;;;4.47;1.50;;;20.30;54.90;;;;;;4495258;31;20147;-73
2021/12/21 12:39:39;;;;;;;3.22;1.35;;;20.40;54.90;;;;;;4487591;31;20151;-73
2021/12/21 12:42:09;;;;;;;5.57;1.30;;;20.50;54.70;;;;;;4497894;31;20136;-75
2021/12/21 12:44:37;;;;;;;4.30;1.42;;;20.50;54.50;;;;;;4495700;31;20163;-73
2021/12/21 12:47:05;;;;;;;4.18;1.48;;;20.60;54.40;;;;;;4494330;31;20120;-74
2021/12/21 12:49:35;;;;;;;3.90;0.98;;;20.60;54.40;;;;;;4495257;31;20124;-76
2021/12/21 12:52:14;;;;;;;2.35;1.30;;;20.70;54.30;;;;;;4493785;31;20683;-77
2021/12/21 12:54:52;;;;;;;3.20;1.10;;;20.70;54.30;;;;;;4494645;31;20128;-77
2021/12/21 12:57:39;;;;;;;2.75;1.17;;;20.80;54.40;;;;;;4499216;31;20140;-80
2021/12/21 13:00:17;;;;;;;3.20;1.40;;;20.80;54.40;;;;;;4472635;31;26075;-80
2021/12/21 13:02:56;;;;;;;3.50;1.27;;;20.80;54.40;;;;;;4494871;31;20128;-81
2021/12/21 13:05:35;;;;;;;3.08;1.30;;;20.80;54.60;;;;;;4495128;31;20156;-82
2021/12/21 13:08:14;;;;;;;4.20;1.20;;;20.80;54.50;;;;;;4493911;31;20132;-79
2021/12/21 13:10:44;;;;;;;2.20;1.13;;;20.80;54.50;;;;;;4494931;31;20142;-77
2021/12/21 13:13:10;;;;;;;3.60;1.38;;;20.80;54.50;;;;;;4494189;31;20578;-78
2021/12/21 13:15:44;;;;;;;4.40;1.20;;;20.80;55.50;;;;;;4488869;31;20138;-76
2021/12/21 13:18:18;;;;;;;3.45;1.27;;;20.80;54.70;;;;;;4503210;31;20143;-79
2021/12/21 13:20:47;;;;;;;1.95;1.10;;;20.80;54.70;;;;;;4495424;31;20160;-78
2021/12/21 13:23:16;;;;;;;2.53;1.00;;;20.80;54.70;;;;;;4494530;31;20681;-80
2021/12/21 13:26:09;;;;;;;6.28;1.08;;;20.80;54.80;;;;;;4494461;31;20180;-77
2021/12/21 13:28:44;;;;;;;4.47;1.20;;;20.80;54.80;;;;;;4494024;31;20129;-76
2021/12/21 13:31:10;;;;;;;4.35;1.05;;;20.80;54.80;;;;;;4494273;31;20262;-78
2021/12/21 13:33:40;;;;;;;3.00;1.05;;;20.90;54.80;;;;;;4494960;31;20148;-77
2021/12/21 13:36:07;;;;;;;3.00;1.23;;;20.90;54.90;;;;;;4494854;31;20132;-76
2021/12/21 13:38:37;;;;;;;3.10;0.98;;;20.90;54.90;;;;;;4493385;31;20146;-77
2021/12/21 13:41:07;;;;;;;3.83;1.27;;;20.80;55.00;;;;;;4495141;31;20164;-78
2021/12/21 13:43:35;;;;;;;3.38;1.27;;;20.80;55.10;;;;;;4501928;31;20152;-79
2021/12/21 13:46:05;;;;;;;2.78;1.15;;;20.80;55.50;;;;;;4502666;31;20132;-79
2021/12/21 13:48:33;;;;;;;5.50;1.98;;;20.80;55.50;;;;;;4498806;31;20581;-77
2021/12/21 13:51:16;;;;;;;5.80;1.20;;;20.80;55.70;;;;;;4493921;31;20154;-83
2021/12/21 13:53:49;;;;;;;2.53;1.38;;;20.80;55.80;;;;;;4513917;31;20285;-70
2021/12/21 13:56:25;;;;;;;3.33;1.20;;;20.80;55.80;;;;;;4500104;31;20128;-75
2021/12/21 13:58:56;;;;;;;5.78;1.40;;;20.80;55.50;;;;;;4504838;31;20734;-76
2021/12/21 14:01:31;;;;;;;3.55;1.58;;;20.80;55.40;;;;;;4493410;31;20132;-76
2021/12/21 14:04:13;;;;;;;4.05;1.35;;;20.80;55.40;;;;;;4498890;31;20133;-75
2021/12/21 14:06:40;;;;;;;9.93;1.30;;;20.90;55.50;;;;;;4500588;31;20125;-75
2021/12/21 14:09:09;;;;;;;3.50;1.20;;;20.90;55.50;;;;;;4500713;31;20156;-76
2021/12/21 14:11:40;;;;;;;2.63;1.13;;;20.90;55.60;;;;;;4499510;31;20257;-74
2021/12/21 14:14:17;;;;;;;2.53;1.15;;;20.90;55.60;;;;;;4491234;31;20262;-74
2021/12/21 14:16:45;;;;;;;6.15;1.38;;;20.90;55.70;;;;;;4499304;31;20148;-74
2021/12/21 14:19:21;;;;;;;3.50;1.50;;;20.90;55.70;;;;;;4499207;31;20152;-74
2021/12/21 14:21:50;;;;;;;2.90;1.38;;;20.90;55.70;;;;;;4499730;31;20307;-74
2021/12/21 14:24:25;;;;;;;3.20;1.20;;;20.90;55.80;;;;;;4501830;31;20124;-74